Time;durP1;ratioP1;P1;durP2;ratioP2;P2;SDS_P1;SDS_P2;PMS_P1;PMS_P2;Temp;Humidity;BMP_temperature;BMP_pressure;BME280_temperature;BME280_humidity;BME280_pressure;Samples;Min_cycle;Max_cycle;Signal;HPM_P1;HPM_P2
2021/10/30 00:01:53;;;;;;;16.80;11.73;;;;;;;12.95;59.43;100101.80;2822686;84;21053;-73
2021/10/30 00:05:55;;;;;;;17.90;12.55;;;;;;;12.94;59.32;100105.97;2822419;84;21033;-72
2021/10/30 00:09:57;;;;;;;17.95;10.80;;;;;;;12.92;59.49;100111.45;2822711;84;21038;-71
2021/10/30 00:13:58;;;;;;;18.00;12.50;;;;;;;12.73;60.06;100107.02;2823754;82;21038;-71
2021/10/30 00:18:01;;;;;;;16.12;13.38;;;;;;;12.77;59.93;100118.22;2822960;84;21002;-71
2021/10/30 00:22:04;;;;;;;18.87;11.88;;;;;;;12.75;59.98;100110.86;2823269;84;21013;-73
2021/10/30 00:26:05;;;;;;;18.05;12.35;;;;;;;12.61;60.41;100094.34;2823312;84;21002;-72
2021/10/30 00:30:09;;;;;;;16.48;13.50;;;;;;;12.63;60.62;100102.19;2830149;83;21030;-71
2021/10/30 00:34:12;;;;;;;17.65;13.08;;;;;;;12.60;60.66;100102.00;2871441;82;21058;-71
2021/10/30 00:38:15;;;;;;;19.95;13.38;;;;;;;12.60;60.88;100094.47;2871749;83;21034;-72
2021/10/30 00:42:17;;;;;;;16.80;11.30;;;;;;;12.63;60.92;100081.69;2870802;83;21094;-71
2021/10/30 00:46:19;;;;;;;15.65;12.18;;;;;;;12.64;61.12;100083.38;2871746;83;21005;-71
2021/10/30 00:50:20;;;;;;;12.70;11.40;;;;;;;12.63;60.95;100083.50;2871371;83;21077;-73
2021/10/30 00:54:25;;;;;;;19.10;12.68;;;;;;;12.59;61.20;100079.45;2871233;83;21292;-71
2021/10/30 00:58:31;;;;;;;19.12;14.63;;;;;;;12.56;61.28;100089.91;2871033;81;21015;-71
2021/10/30 01:02:35;;;;;;;18.48;12.82;;;;;;;12.51;61.32;100080.16;2871537;83;20987;-72
2021/10/30 01:06:41;;;;;;;15.05;11.95;;;;;;;12.53;61.20;100081.72;2871643;83;21073;-71
2021/10/30 01:10:42;;;;;;;;;;;;;;;12.51;61.20;100058.34;2874359;83;21034;-71
2021/10/30 01:14:45;;;;;;;15.90;13.53;;;;;;;12.52;61.32;100054.69;2871365;83;20065;-72
2021/10/30 01:18:47;;;;;;;17.17;13.45;;;;;;;12.49;61.43;100048.31;2871190;83;21014;-72
2021/10/30 01:22:49;;;;;;;17.20;13.88;;;;;;;12.50;61.58;100051.80;2871280;83;21023;-72
2021/10/30 01:26:51;;;;;;;21.15;15.32;;;;;;;12.56;61.42;100036.55;2871242;83;21058;-71
2021/10/30 01:30:53;;;;;;;16.90;12.53;;;;;;;12.58;61.48;100025.26;2870613;82;21039;-72
2021/10/30 01:34:55;;;;;;;23.05;15.15;;;;;;;12.58;61.19;100029.27;2867306;82;21044;-73
2021/10/30 01:38:57;;;;;;;16.12;13.68;;;;;;;12.60;61.24;100032.63;2867864;83;21070;-72
2021/10/30 01:43:03;;;;;;;17.42;13.43;;;;;;;12.61;61.02;100048.98;2867756;83;21055;-71
2021/10/30 01:47:06;;;;;;;17.67;14.93;;;;;;;12.68;60.74;100071.92;2867732;83;21039;-73
2021/10/30 01:51:08;;;;;;;18.48;14.15;;;;;;;12.79;60.37;100090.92;2868066;83;21032;-71
2021/10/30 01:55:11;;;;;;;14.50;12.78;;;;;;;12.82;60.14;100088.78;2867833;83;21087;-71
2021/10/30 01:59:12;;;;;;;19.55;12.73;;;;;;;12.76;60.66;100084.04;2867669;82;21292;-73
2021/10/30 02:03:15;;;;;;;17.30;13.80;;;;;;;12.67;60.94;100076.89;2872927;82;21705;-71
2021/10/30 02:07:17;;;;;;;17.87;12.45;;;;;;;12.52;61.39;100074.70;2873230;82;20977;-72
2021/10/30 02:11:18;;;;;;;17.00;13.38;;;;;;;12.48;61.54;100060.45;2872817;82;20992;-73
2021/10/30 02:15:20;;;;;;;18.67;14.55;;;;;;;12.52;61.58;100056.02;2867600;83;21098;-71
2021/10/30 02:19:23;;;;;;;14.68;11.83;;;;;;;12.54;61.62;100047.86;2868047;83;21036;-71
2021/10/30 02:23:25;;;;;;;17.98;13.50;;;;;;;12.49;61.81;100044.31;2867811;83;21068;-72
2021/10/30 02:27:26;;;;;;;20.60;14.60;;;;;;;12.56;61.62;100048.07;2867779;83;21059;-72
2021/10/30 02:31:28;;;;;;;17.23;13.10;;;;;;;12.63;61.36;100040.33;2865961;83;21039;-71
2021/10/30 02:35:31;;;;;;;18.17;12.45;;;;;;;12.54;61.53;100033.18;2801740;85;21063;-72
2021/10/30 02:39:32;;;;;;;16.32;14.45;;;;;;;12.46;61.76;100033.91;2801960;84;21062;-72
2021/10/30 02:43:34;;;;;;;25.35;13.65;;;;;;;12.35;62.16;100028.75;2801555;84;21075;-71
2021/10/30 02:47:35;;;;;;;21.65;15.05;;;;;;;12.07;62.65;100030.83;2770761;85;21066;-73
2021/10/30 02:51:38;;;;;;;23.02;16.05;;;;;;;11.73;63.83;100025.89;2761801;86;21082;-74
2021/10/30 02:55:39;;;;;;;23.83;14.55;;;;;;;11.66;64.09;100035.43;2779645;85;21059;-74
2021/10/30 02:59:41;;;;;;;21.68;13.30;;;;;;;11.50;64.62;100030.15;2810400;84;21030;-74
2021/10/30 03:03:42;;;;;;;14.40;12.93;;;;;;;11.35;64.86;100034.18;2780234;85;21042;-72
2021/10/30 03:07:45;;;;;;;21.70;14.95;;;;;;;11.35;64.87;100033.70;2810377;84;21094;-71
2021/10/30 03:11:47;;;;;;;25.08;14.18;;;;;;;11.29;65.04;100028.44;2780229;85;21058;-74
2021/10/30 03:15:49;;;;;;;21.37;14.98;;;;;;;11.28;64.83;100040.06;2810373;84;21059;-71
2021/10/30 03:19:50;;;;;;;17.92;16.02;;;;;;;11.34;64.58;100041.82;2779865;85;21502;-74
2021/10/30 03:23:52;;;;;;;19.62;14.10;;;;;;;11.37;64.54;100038.88;2810130;84;21070;-72
2021/10/30 03:27:54;;;;;;;21.62;16.25;;;;;;;11.50;64.19;100039.47;2779882;85;21334;-72
2021/10/30 03:31:56;;;;;;;19.90;13.70;;;;;;;11.68;63.66;100038.28;2812101;84;21147;-73
2021/10/30 03:35:58;;;;;;;15.35;12.15;;;;;;;11.71;63.32;100046.50;2828906;84;21038;-72
2021/10/30 03:40:00;;;;;;;22.50;13.68;;;;;;;11.79;63.19;100043.14;2831001;84;21589;-74
2021/10/30 03:44:02;;;;;;;21.15;14.87;;;;;;;11.73;63.05;100041.88;2828977;84;21093;-71
2021/10/30 03:48:05;;;;;;;20.62;13.38;;;;;;;11.67;63.16;100043.77;2831263;84;22236;-73
2021/10/30 03:52:07;;;;;;;23.22;16.25;;;;;;;11.69;63.36;100056.46;2828798;84;21030;-74
2021/10/30 03:56:09;;;;;;;18.65;14.93;;;;;;;11.63;63.41;100054.36;2831186;84;20982;-73
2021/10/30 04:00:13;;;;;;;22.35;14.87;;;;;;;11.57;63.31;100061.91;2829051;83;20995;-72
2021/10/30 04:04:16;;;;;;;30.10;15.78;;;;;;;11.46;63.39;100068.70;2830043;84;21445;-71
2021/10/30 04:08:19;;;;;;;18.23;14.60;;;;;;;11.32;63.75;100066.41;2860491;83;21024;-72
2021/10/30 04:12:20;;;;;;;23.05;13.72;;;;;;;11.22;64.03;100056.59;2784028;85;21083;-71
2021/10/30 04:16:23;;;;;;;19.90;13.48;;;;;;;11.10;64.48;100045.21;2781911;85;21050;-71
2021/10/30 04:20:25;;;;;;;20.97;14.45;;;;;;;11.13;64.68;100035.62;2828737;84;21058;-71
2021/10/30 04:24:26;;;;;;;21.45;14.15;;;;;;;11.24;64.18;100041.32;2831013;83;20973;-71
2021/10/30 04:28:28;;;;;;;20.92;14.95;;;;;;;11.29;64.20;100034.23;2860621;83;21032;-72
2021/10/30 04:32:31;;;;;;;21.40;15.30;;;;;;;11.32;64.04;100031.80;2831223;83;21095;-72
2021/10/30 04:36:35;;;;;;;22.20;15.45;;;;;;;11.38;63.91;100032.09;2871181;83;21044;-71
2021/10/30 04:40:37;;;;;;;20.08;15.83;;;;;;;11.39;63.98;100030.26;2871147;83;21044;-73
2021/10/30 04:44:39;;;;;;;29.50;15.08;;;;;;;11.32;63.89;100030.47;2870980;83;21055;-72
2021/10/30 04:48:41;;;;;;;17.62;13.58;;;;;;;11.26;64.02;100022.53;2871342;83;20993;-72
2021/10/30 04:52:45;;;;;;;20.02;15.10;;;;;;;11.21;64.17;100010.98;2871203;83;21047;-72
2021/10/30 04:56:47;;;;;;;20.02;14.45;;;;;;;11.30;63.86;100013.31;2870920;83;21007;-72
2021/10/30 05:00:49;;;;;;;19.07;15.10;;;;;;;11.37;63.60;100030.89;2871200;83;21043;-71
2021/10/30 05:04:50;;;;;;;28.12;15.13;;;;;;;11.36;63.42;100025.21;2871081;83;21821;-72
2021/10/30 05:08:52;;;;;;;16.12;13.05;;;;;;;11.34;63.49;100021.84;2870803;83;21031;-73
2021/10/30 05:12:54;;;;;;;17.77;13.62;;;;;;;11.29;63.52;100021.77;2865442;83;21054;-71
2021/10/30 05:16:56;;;;;;;18.27;12.20;;;;;;;11.34;63.43;100026.70;2829231;84;21118;-73
2021/10/30 05:20:57;;;;;;;19.17;15.53;;;;;;;11.31;63.19;100020.80;2858213;83;21054;-73
2021/10/30 05:25:00;;;;;;;15.38;13.85;;;;;;;11.33;63.14;100016.17;2829545;84;21031;-70
2021/10/30 05:29:01;;;;;;;21.87;13.83;;;;;;;11.35;63.13;100015.54;2870064;83;21108;-72
2021/10/30 05:33:03;;;;;;;16.70;13.72;;;;;;;11.25;63.32;100005.73;2868228;83;21114;-72
2021/10/30 05:37:06;;;;;;;41.15;19.48;;;;;;;11.17;63.61;99990.91;2868663;83;20995;-71
2021/10/30 05:41:08;;;;;;;22.55;15.58;;;;;;;11.15;63.91;99992.87;2868683;83;21018;-73
2021/10/30 05:45:12;;;;;;;22.05;14.93;;;;;;;11.11;63.74;100006.97;2870969;83;21067;-71
2021/10/30 05:49:15;;;;;;;23.38;15.93;;;;;;;11.11;63.61;100004.78;2871527;83;21137;-73
2021/10/30 05:53:17;;;;;;;22.35;15.72;;;;;;;11.10;63.80;100005.28;2870858;83;21071;-72
2021/10/30 05:57:18;;;;;;;19.00;16.30;;;;;;;11.00;63.75;100013.23;2871203;83;21028;-71
2021/10/30 06:01:22;;;;;;;23.92;17.35;;;;;;;10.86;64.24;100012.27;2871124;83;21024;-71
2021/10/30 06:05:23;;;;;;;28.23;16.15;;;;;;;10.75;64.54;100003.05;2871041;83;21031;-72
2021/10/30 06:09:25;;;;;;;30.37;15.20;;;;;;;10.79;64.17;100013.77;2871359;83;21043;-71
2021/10/30 06:13:27;;;;;;;22.10;15.50;;;;;;;10.60;64.97;100015.36;2870685;83;21047;-71
2021/10/30 06:17:31;;;;;;;50.03;18.82;;;;;;;10.66;64.90;100008.20;2862087;83;21055;-70
2021/10/30 06:21:39;;;;;;;21.12;14.98;;;;;;;10.79;64.83;100002.65;2870348;83;21020;-71
2021/10/30 06:25:47;;;;;;;21.40;15.50;;;;;;;10.89;64.85;100007.15;2868293;82;21043;-71
2021/10/30 06:29:53;;;;;;;22.07;13.98;;;;;;;11.09;64.19;100013.39;2837590;83;21055;-71
2021/10/30 06:34:03;;;;;;;25.72;16.57;;;;;;;11.31;63.76;100012.81;2865558;81;21004;-72
2021/10/30 06:38:04;;;;;;;19.77;14.70;;;;;;;11.47;63.55;100015.78;2867637;82;21668;-71
2021/10/30 06:42:06;;;;;;;21.97;17.05;;;;;;;11.55;63.34;100015.91;2867972;83;21098;-71
2021/10/30 06:46:10;;;;;;;17.42;13.90;;;;;;;11.72;62.87;100008.22;2867836;83;21075;-73
2021/10/30 06:50:20;;;;;;;28.85;15.43;;;;;;;11.86;62.57;100009.13;2867795;83;21054;-72
2021/10/30 06:54:16;;;;;;;19.70;14.60;;;;;;;12.08;61.78;100016.51;2865654;82;21017;-72
2021/10/30 06:58:17;;;;;;;20.23;13.88;;;;;;;12.35;61.62;100010.91;2864391;83;20992;-71
2021/10/30 07:02:19;;;;;;;20.62;13.58;;;;;;;12.55;61.06;100013.52;2867917;82;21066;-73
2021/10/30 07:06:21;;;;;;;22.05;13.60;;;;;;;12.69;61.09;100009.56;2868116;83;21066;-73
2021/10/30 07:10:23;;;;;;;34.92;17.12;;;;;;;12.89;60.72;100012.14;2847701;82;21046;-71
2021/10/30 07:14:24;;;;;;;20.02;13.55;;;;;;;13.13;60.75;100006.23;2866994;82;21067;-71
2021/10/30 07:18:26;;;;;;;15.38;12.85;;;;;;;13.28;60.21;100002.08;2867034;83;20992;-71
2021/10/30 07:22:29;;;;;;;22.90;15.90;;;;;;;13.43;60.17;100001.08;2867329;83;21022;-72
2021/10/30 07:26:31;;;;;;;18.92;12.18;;;;;;;13.66;59.58;99997.13;2867492;83;21043;-71
2021/10/30 07:30:33;;;;;;;20.55;15.95;;;;;;;13.79;58.80;99996.26;2866434;83;20998;-72
2021/10/30 07:34:34;;;;;;;21.12;13.22;;;;;;;13.98;58.27;99997.90;2852444;83;21015;-71
2021/10/30 07:38:38;;;;;;;22.02;13.83;;;;;;;14.23;58.03;99996.73;2830384;84;21547;-71
2021/10/30 07:42:44;;;;;;;20.05;13.10;;;;;;;14.40;57.15;99991.01;2821275;83;21008;-72
2021/10/30 07:46:45;;;;;;;17.87;13.05;;;;;;;14.63;56.66;99987.78;2823892;83;21067;-71
2021/10/30 07:50:47;;;;;;;18.42;12.13;;;;;;;14.75;56.37;99979.52;2789951;85;21036;-72
2021/10/30 07:54:49;;;;;;;16.17;12.82;;;;;;;14.86;55.60;99975.19;2834160;83;21059;-71
2021/10/30 07:58:52;;;;;;;18.77;14.07;;;;;;;14.92;55.02;99973.71;2837094;83;21048;-72
2021/10/30 08:02:54;;;;;;;107.60;29.65;;;;;;;15.07;55.32;99968.08;2837257;84;21001;-73
2021/10/30 08:06:57;;;;;;;22.37;11.60;;;;;;;15.17;55.12;99967.08;2813579;84;21004;-75
2021/10/30 08:11:00;;;;;;;44.83;16.70;;;;;;;15.32;55.39;99963.25;2817265;83;21108;-75
2021/10/30 08:15:04;;;;;;;24.75;11.55;;;;;;;15.36;54.23;99951.23;2831982;83;21555;-73
2021/10/30 08:19:07;;;;;;;18.42;12.10;;;;;;;15.43;53.60;99953.56;2826554;84;21011;-71
2021/10/30 08:23:10;;;;;;;34.35;14.20;;;;;;;15.64;53.65;99952.24;2837786;83;21011;-71
2021/10/30 08:27:14;;;;;;;17.23;10.55;;;;;;;15.87;53.69;99956.92;2837110;83;20968;-71
2021/10/30 08:31:16;;;;;;;17.17;12.35;;;;;;;15.92;51.19;99939.87;2837512;84;21063;-74
2021/10/30 08:35:17;;;;;;;19.75;12.00;;;;;;;16.06;51.37;99939.16;2857622;82;21023;-74
2021/10/30 08:39:20;;;;;;;17.92;12.58;;;;;;;16.10;51.40;99941.01;2871801;83;21046;-75
2021/10/30 08:43:25;;;;;;;15.15;11.20;;;;;;;16.22;51.81;99929.41;2871179;83;21030;-73
2021/10/30 08:47:30;;;;;;;15.08;11.63;;;;;;;16.36;51.47;99928.71;2871401;83;21058;-72
2021/10/30 08:51:33;;;;;;;18.90;11.95;;;;;;;16.48;52.28;99929.17;2871406;81;21007;-71
2021/10/30 08:55:35;;;;;;;13.55;10.28;;;;;;;16.67;52.12;99923.05;2871728;83;21090;-71
2021/10/30 08:59:45;;;;;;;17.67;14.10;;;;;;;16.77;52.49;99925.53;2871763;83;21018;-72
2021/10/30 09:04:01;;;;;;;17.67;13.45;;;;;;;16.84;52.46;99930.52;2871856;83;21014;-71
2021/10/30 09:08:06;;;;;;;21.33;14.30;;;;;;;16.91;52.62;99921.25;2871700;81;21090;-71
2021/10/30 09:12:08;;;;;;;20.32;14.75;;;;;;;17.12;52.16;99911.27;2868904;78;21007;-71
2021/10/30 09:16:14;;;;;;;21.35;14.47;;;;;;;17.18;51.35;99899.79;2861830;81;21075;-74
2021/10/30 09:20:15;;;;;;;28.50;17.75;;;;;;;17.36;51.38;99896.80;2857663;80;21027;-72
2021/10/30 09:24:21;;;;;;;28.57;19.02;;;;;;;17.38;49.87;99887.22;2849328;82;21038;-70
2021/10/30 09:28:28;;;;;;;13.55;10.55;;;;;;;17.46;50.34;99880.94;2864614;82;21512;-71
2021/10/30 09:32:32;;;;;;;14.38;9.63;;;;;;;17.51;49.73;99870.47;2862898;82;21021;-71
2021/10/30 09:36:42;;;;;;;58.15;15.80;;;;;;;17.60;48.25;99867.20;2821520;82;21646;-70
2021/10/30 09:40:45;;;;;;;16.37;9.65;;;;;;;17.77;48.31;99862.48;2816807;83;21062;-70
2021/10/30 09:44:49;;;;;;;17.40;9.93;;;;;;;17.83;48.24;99855.87;2809426;84;21059;-71
2021/10/30 09:48:54;;;;;;;13.22;8.60;;;;;;;17.99;48.21;99844.61;2790569;85;20999;-70
2021/10/30 09:52:57;;;;;;;11.43;10.32;;;;;;;18.16;46.94;99846.63;2790663;85;21090;-70
2021/10/30 09:56:58;;;;;;;55.43;14.73;;;;;;;18.43;47.42;99836.71;2822865;83;21063;-71
2021/10/30 10:01:18;;;;;;;33.20;11.78;;;;;;;18.58;46.94;99829.44;2790840;85;22402;-69
2021/10/30 10:05:24;;;;;;;13.88;8.43;;;;;;;18.77;46.78;99827.16;2807929;84;21012;-69
2021/10/30 10:09:26;;;;;;;16.05;9.25;;;;;;;18.89;45.62;99821.59;2823105;84;21083;-70
2021/10/30 10:13:29;;;;;;;15.60;8.58;;;;;;;18.86;45.12;99819.27;2829727;83;21078;-70
2021/10/30 10:17:33;;;;;;;15.83;9.98;;;;;;;18.97;45.91;99813.38;2822691;84;21084;-70
2021/10/30 10:21:37;;;;;;;12.30;9.93;;;;;;;19.07;45.56;99809.56;2829228;83;21373;-69
2021/10/30 10:25:55;;;;;;;12.43;8.95;;;;;;;19.05;45.79;99799.47;2833566;83;21019;-69
2021/10/30 10:29:57;;;;;;;17.23;10.20;;;;;;;19.20;45.18;99789.97;2837523;83;21039;-71
2021/10/30 10:34:10;;;;;;;24.20;10.72;;;;;;;19.32;45.63;99783.53;2842228;81;21003;-70
2021/10/30 10:38:12;;;;;;;13.50;9.55;;;;;;;19.35;45.49;99776.39;2858539;80;21026;-72
2021/10/30 10:42:17;;;;;;;22.85;14.20;;;;;;;19.28;45.40;99772.30;2866694;82;21086;-73
2021/10/30 10:46:18;;;;;;;35.83;19.30;;;;;;;19.48;45.72;99764.36;2849077;82;21055;-71
2021/10/30 10:50:30;;;;;;;22.50;13.22;;;;;;;19.64;45.37;99749.72;2871198;82;21020;-72
2021/10/30 10:54:56;;;;;;;12.95;9.80;;;;;;;19.65;44.55;99741.94;2831037;82;21370;-71
2021/10/30 10:59:06;;;;;;;15.60;9.08;;;;;;;19.75;45.38;99725.39;2866191;82;21668;-73
2021/10/30 11:03:08;;;;;;;17.60;10.15;;;;;;;19.81;44.19;99721.88;2870156;78;21012;-73
2021/10/30 11:07:17;;;;;;;9.80;8.03;;;;;;;19.78;43.21;99716.08;2869124;77;21052;-72
2021/10/30 11:11:25;;;;;;;15.13;9.48;;;;;;;19.79;44.07;99716.39;2985719;78;20966;-70
2021/10/30 11:15:30;;;;;;;20.52;11.48;;;;;;;19.87;43.77;99716.73;3010583;78;21023;-71
2021/10/30 11:19:37;;;;;;;;;;;;;;;19.88;43.73;99713.00;3009449;78;21025;-74
2021/10/30 11:23:55;;;;;;;12.07;8.33;;;;;;;19.93;43.42;99699.23;3003418;78;20146;-71
2021/10/30 11:27:59;;;;;;;14.03;9.45;;;;;;;19.87;43.39;99699.19;3010508;78;20997;-72
2021/10/30 11:32:04;;;;;;;14.98;9.10;;;;;;;19.90;43.42;99687.45;3020004;78;21050;-74
2021/10/30 11:36:11;;;;;;;12.28;9.03;;;;;;;19.88;44.39;99679.27;2993915;78;21263;-71
2021/10/30 11:40:12;;;;;;;19.75;12.70;;;;;;;19.90;43.17;99679.89;3012014;78;21004;-71
2021/10/30 11:44:17;;;;;;;19.95;14.68;;;;;;;19.94;42.85;99678.48;2971808;79;20990;-71
2021/10/30 11:48:19;;;;;;;23.67;15.70;;;;;;;19.90;43.16;99675.84;2965986;79;21008;-71
2021/10/30 11:52:21;;;;;;;43.55;14.55;;;;;;;19.79;42.48;99661.88;2994874;79;21023;-71
2021/10/30 11:56:26;;;;;;;19.35;12.03;;;;;;;19.93;42.86;99659.27;2970697;79;21092;-72
2021/10/30 12:00:29;;;;;;;32.13;13.10;;;;;;;19.87;42.58;99656.02;3006794;78;20962;-71
2021/10/30 12:04:38;;;;;;;33.08;14.40;;;;;;;19.95;42.62;99654.00;3014558;78;20986;-71
2021/10/30 12:08:41;;;;;;;16.15;8.80;;;;;;;19.92;42.64;99650.33;3010279;78;21049;-75
2021/10/30 12:12:44;;;;;;;15.60;9.35;;;;;;;20.07;43.48;99650.69;2992037;78;21083;-72
2021/10/30 12:16:47;;;;;;;13.70;9.33;;;;;;;20.17;43.19;99646.25;3001492;78;21010;-72
2021/10/30 12:20:49;;;;;;;14.63;9.60;;;;;;;20.11;42.88;99635.23;3003415;78;20970;-75
2021/10/30 12:25:04;;;;;;;11.68;8.43;;;;;;;20.17;42.17;99629.55;2991202;78;20976;-73
2021/10/30 12:29:17;;;;;;;;;;;;;;;20.17;43.26;99624.64;2980339;78;21033;-76
2021/10/30 12:33:19;;;;;;;12.95;8.83;;;;;;;20.22;42.65;99616.75;3005598;78;20127;-75
2021/10/30 12:37:28;;;;;;;16.55;9.90;;;;;;;20.14;42.70;99600.77;2950610;79;20977;-72
2021/10/30 12:41:33;;;;;;;15.10;9.88;;;;;;;20.07;41.72;99592.14;2947953;79;21041;-74
2021/10/30 12:45:55;;;;;;;13.53;10.13;;;;;;;20.09;43.04;99587.88;3008532;77;20998;-76
2021/10/30 12:50:03;;;;;;;12.30;9.00;;;;;;;19.94;43.14;99577.27;2948595;79;21037;-73
2021/10/30 12:54:06;;;;;;;14.10;8.88;;;;;;;19.79;42.73;99569.33;2992021;78;21363;-72
2021/10/30 12:58:08;;;;;;;13.58;9.58;;;;;;;19.62;42.99;99568.34;2918620;79;21005;-72
2021/10/30 13:02:10;;;;;;;17.75;8.68;;;;;;;19.40;42.72;99555.50;2960939;79;21039;-73
2021/10/30 13:06:14;;;;;;;28.55;12.60;;;;;;;19.25;43.36;99556.47;2947117;78;21017;-76
2021/10/30 13:10:17;;;;;;;21.20;9.65;;;;;;;19.18;44.10;99550.23;2956088;79;21070;-76
2021/10/30 13:14:18;;;;;;;15.68;9.90;;;;;;;19.21;44.17;99554.41;2957660;80;21056;-72
2021/10/30 13:18:20;;;;;;;12.18;9.50;;;;;;;19.12;44.08;99547.81;2949665;80;21113;-72
2021/10/30 13:22:27;;;;;;;16.15;10.08;;;;;;;19.03;44.03;99535.55;2948123;80;21077;-71
2021/10/30 13:26:29;;;;;;;16.85;10.30;;;;;;;18.81;44.85;99528.88;2955528;80;20988;-72
2021/10/30 13:30:31;;;;;;;26.33;10.18;;;;;;;18.74;44.42;99539.30;2959132;80;21516;-72
2021/10/30 13:34:32;;;;;;;14.35;11.15;;;;;;;18.59;44.22;99533.50;2952728;80;20956;-74
2021/10/30 13:38:34;;;;;;;20.32;11.50;;;;;;;18.48;44.53;99517.91;2940673;80;20995;-73
2021/10/30 13:42:40;;;;;;;40.38;21.35;;;;;;;18.43;44.96;99524.38;2959627;80;21311;-72
2021/10/30 13:46:42;;;;;;;59.93;36.45;;;;;;;18.36;44.75;99514.39;2949797;80;21019;-74
2021/10/30 13:50:43;;;;;;;70.08;38.08;;;;;;;18.34;45.11;99511.56;2950122;80;21070;-73
2021/10/30 13:54:46;;;;;;;122.58;67.42;;;;;;;18.33;45.14;99505.37;2952976;80;21048;-71
2021/10/30 13:58:48;;;;;;;85.45;56.00;;;;;;;18.30;45.20;99520.57;2966664;80;20992;-72
2021/10/30 14:02:50;;;;;;;42.73;20.20;;;;;;;18.25;45.16;99523.84;2955875;80;21487;-75
2021/10/30 14:06:53;;;;;;;33.88;20.55;;;;;;;18.20;44.96;99516.02;2974343;80;21015;-70
2021/10/30 14:10:55;;;;;;;39.18;20.95;;;;;;;18.14;45.16;99520.32;2911567;79;20994;-75
2021/10/30 14:14:56;;;;;;;88.55;51.77;;;;;;;18.05;45.18;99523.66;3030293;77;21064;-74
2021/10/30 14:18:59;;;;;;;71.28;38.50;;;;;;;17.99;45.31;99519.88;2984082;79;20955;-77
2021/10/30 14:23:02;;;;;;;49.33;25.10;;;;;;;17.92;45.61;99532.41;3000371;78;20981;-73
2021/10/30 14:27:04;;;;;;;41.58;20.43;;;;;;;17.83;45.94;99538.97;3000901;78;21020;-80
2021/10/30 14:31:07;;;;;;;71.15;23.98;;;;;;;17.80;47.22;99542.05;2989584;78;20950;-79
2021/10/30 14:35:09;;;;;;;26.73;15.78;;;;;;;17.83;46.83;99542.47;3011237;78;20990;-87
2021/10/30 14:39:11;;;;;;;14.90;10.28;;;;;;;17.89;46.46;99557.55;3003601;78;20977;-80
2021/10/30 14:43:12;;;;;;;27.20;13.53;;;;;;;17.85;46.23;99549.84;3002671;78;20971;-78
2021/10/30 14:47:14;;;;;;;16.10;10.20;;;;;;;17.88;46.77;99550.47;2973812;78;20937;-74
2021/10/30 14:51:16;;;;;;;12.50;9.90;;;;;;;17.79;46.89;99553.30;2979525;78;21000;-72
2021/10/30 14:55:18;;;;;;;30.92;16.10;;;;;;;17.81;46.92;99562.01;2998665;78;21040;-74
2021/10/30 14:59:19;;;;;;;19.40;10.93;;;;;;;17.69;47.09;99564.37;3000072;78;21023;-72
2021/10/30 15:03:23;;;;;;;14.00;9.50;;;;;;;17.56;46.56;99562.86;2965851;79;21037;-75
2021/10/30 15:07:24;;;;;;;124.78;72.20;;;;;;;17.56;46.67;99561.03;2948844;79;20998;-70
2021/10/30 15:11:27;;;;;;;100.75;56.60;;;;;;;17.43;46.53;99556.83;2937764;79;21393;-73
2021/10/30 15:15:29;;;;;;;64.40;36.65;;;;;;;17.33;46.81;99559.00;2937500;79;21049;-77
2021/10/30 15:19:31;;;;;;;55.67;35.60;;;;;;;17.13;46.98;99559.05;2937866;79;21015;-72
2021/10/30 15:23:34;;;;;;;96.30;49.58;;;;;;;16.98;46.94;99548.78;2939012;79;21005;-71
2021/10/30 15:27:36;;;;;;;67.80;38.78;;;;;;;16.90;47.70;99560.48;2895517;81;21002;-71
2021/10/30 15:31:38;;;;;;;46.50;29.00;;;;;;;16.73;47.26;99553.09;2962137;79;20979;-71
2021/10/30 15:35:40;;;;;;;89.75;58.80;;;;;;;16.72;47.66;99562.70;2938678;81;20985;-71
2021/10/30 15:39:42;;;;;;;48.02;29.67;;;;;;;16.61;47.87;99557.27;2903134;81;21010;-70
2021/10/30 15:43:43;;;;;;;38.92;22.32;;;;;;;16.44;47.96;99561.94;2962098;79;21004;-70
2021/10/30 15:47:48;;;;;;;20.23;11.50;;;;;;;16.41;48.25;99565.32;2961979;79;21440;-70
2021/10/30 15:51:50;;;;;;;22.82;16.85;;;;;;;16.32;48.54;99562.89;2952910;78;21022;-71
2021/10/30 15:55:52;;;;;;;39.13;21.35;;;;;;;16.13;48.98;99571.77;2960995;79;21046;-71
2021/10/30 15:59:53;;;;;;;21.55;13.62;;;;;;;15.93;49.02;99568.22;2965476;79;21037;-71
2021/10/30 16:03:55;;;;;;;14.03;10.05;;;;;;;15.89;49.11;99572.77;2969465;80;20986;-76
2021/10/30 16:07:56;;;;;;;18.98;11.73;;;;;;;15.94;49.22;99587.31;2969039;79;21026;-72
2021/10/30 16:12:02;;;;;;;20.20;12.05;;;;;;;15.87;49.19;99597.07;2967174;79;21048;-74
2021/10/30 16:16:02;;;;;;;23.77;13.30;;;;;;;15.73;49.72;99594.64;2933401;79;20995;-71
2021/10/30 16:20:06;;;;;;;17.45;11.43;;;;;;;15.60;50.11;99601.08;2991221;79;21004;-71
2021/10/30 16:24:08;;;;;;;98.60;32.65;;;;;;;15.63;50.10;99610.10;2963427;79;20954;-73
2021/10/30 16:28:14;;;;;;;25.45;16.57;;;;;;;15.62;50.17;99624.52;2997998;79;21010;-72
2021/10/30 16:32:15;;;;;;;21.30;13.83;;;;;;;15.54;50.14;99646.34;2987491;79;21000;-72
2021/10/30 16:36:17;;;;;;;20.27;13.68;;;;;;;15.44;50.44;99647.55;2939142;79;21063;-72
2021/10/30 16:40:20;;;;;;;22.95;14.43;;;;;;;15.38;50.26;99651.76;2968566;80;20974;-72
2021/10/30 16:44:22;;;;;;;21.40;13.13;;;;;;;15.31;50.52;99661.47;2973281;79;21006;-72
2021/10/30 16:48:24;;;;;;;19.30;13.72;;;;;;;15.18;50.62;99666.89;2986971;79;21044;-72
2021/10/30 16:52:27;;;;;;;20.20;14.65;;;;;;;15.10;50.60;99661.53;2992375;78;20946;-73
2021/10/30 16:56:28;;;;;;;24.72;14.87;;;;;;;15.01;50.96;99658.55;3005695;78;21424;-74
2021/10/30 17:00:31;;;;;;;20.75;14.43;;;;;;;14.96;50.87;99665.26;3023264;78;21060;-73
2021/10/30 17:04:32;;;;;;;21.35;14.40;;;;;;;14.94;49.93;99660.58;3021149;78;20992;-73
2021/10/30 17:08:37;;;;;;;17.95;11.55;;;;;;;15.08;49.76;99663.55;3002371;79;21003;-73
2021/10/30 17:12:39;;;;;;;18.45;12.20;;;;;;;15.15;48.79;99656.52;2968549;78;21549;-73
2021/10/30 17:16:42;;;;;;;16.57;11.10;;;;;;;15.30;47.90;99638.37;2947578;78;21111;-72
2021/10/30 17:20:43;;;;;;;14.28;10.82;;;;;;;15.50;47.38;99634.27;2954088;80;21024;-72
2021/10/30 17:24:46;;;;;;;22.02;13.45;;;;;;;15.47;47.44;99633.28;2999536;78;21041;-73
2021/10/30 17:28:49;;;;;;;19.07;11.20;;;;;;;15.44;47.59;99634.98;3008512;77;21012;-73
2021/10/30 17:32:51;;;;;;;23.92;15.53;;;;;;;15.57;47.11;99633.08;2997744;78;21040;-72
2021/10/30 17:36:54;;;;;;;18.17;11.15;;;;;;;15.51;47.63;99631.92;2969566;78;21038;-72
2021/10/30 17:40:56;;;;;;;16.07;10.70;;;;;;;15.41;47.95;99631.31;2994244;78;21150;-72
2021/10/30 17:44:59;;;;;;;11.18;9.03;;;;;;;15.26;48.35;99620.48;2972626;78;21063;-74
2021/10/30 17:49:00;;;;;;;10.18;9.08;;;;;;;15.13;48.34;99595.06;2992439;78;20962;-75
2021/10/30 17:53:02;;;;;;;18.60;12.07;;;;;;;15.03;48.87;99593.08;2954858;78;21017;-74
2021/10/30 17:57:03;;;;;;;15.48;9.58;;;;;;;15.11;48.64;99585.52;2955015;78;20970;-76
2021/10/30 18:01:05;;;;;;;19.35;9.83;;;;;;;15.09;48.86;99591.56;2962672;78;21013;-75
2021/10/30 18:05:10;;;;;;;17.37;9.95;;;;;;;14.99;48.87;99589.93;2994302;78;21001;-74
2021/10/30 18:09:11;;;;;;;18.17;10.68;;;;;;;14.99;48.86;99605.14;2997344;78;21033;-72
2021/10/30 18:13:13;;;;;;;14.40;9.48;;;;;;;15.07;48.53;99623.04;2994976;78;20990;-72
2021/10/30 18:17:16;;;;;;;13.00;9.93;;;;;;;15.09;48.58;99644.64;2995253;78;21443;-71
2021/10/30 18:21:18;;;;;;;13.62;9.73;;;;;;;15.14;48.64;99628.88;2984596;78;21075;-73
2021/10/30 18:25:20;;;;;;;19.92;10.95;;;;;;;15.10;48.61;99632.06;2974446;78;21001;-72
2021/10/30 18:29:21;;;;;;;17.90;10.38;;;;;;;15.12;48.67;99632.23;2942222;80;21115;-68
2021/10/30 18:33:23;;;;;;;17.02;9.90;;;;;;;15.05;49.16;99625.05;2943418;78;20923;-75
2021/10/30 18:37:25;;;;;;;12.95;9.30;;;;;;;15.03;48.33;99628.41;3003126;78;21009;-73